sensor_id;sensor_type;location;lat;lon;timestamp;temperature;humidity
31046;DHT22;17711;54.018;9.300;2023-06-26T00:00:19;20.50;99.90
31046;DHT22;17711;54.018;9.300;2023-06-26T00:02:48;20.50;99.90
31046;DHT22;17711;54.018;9.300;2023-06-26T00:05:17;20.40;99.90
31046;DHT22;17711;54.018;9.300;2023-06-26T00:07:45;20.40;99.90
31046;DHT22;17711;54.018;9.300;2023-06-26T00:10:14;20.40;99.90
31046;DHT22;17711;54.018;9.300;2023-06-26T00:12:43;20.40;99.90
31046;DHT22;17711;54.018;9.300;2023-06-26T00:15:11;20.40;99.90
31046;DHT22;17711;54.018;9.300;2023-06-26T00:17:41;20.40;99.90
31046;DHT22;17711;54.018;9.300;2023-06-26T00:20:12;20.30;99.90
31046;DHT22;17711;54.018;9.300;2023-06-26T00:22:43;20.30;99.90
31046;DHT22;17711;54.018;9.300;2023-06-26T00:25:12;20.30;99.90
31046;DHT22;17711;54.018;9.300;2023-06-26T00:27:41;20.30;99.90
31046;DHT22;17711;54.018;9.300;2023-06-26T00:30:10;20.30;99.90
31046;DHT22;17711;54.018;9.300;2023-06-26T00:32:41;20.20;99.90
31046;DHT22;17711;54.018;9.300;2023-06-26T00:35:10;20.30;99.90
31046;DHT22;17711;54.018;9.300;2023-06-26T00:37:38;20.20;99.90
31046;DHT22;17711;54.018;9.300;2023-06-26T00:40:08;20.20;99.90
31046;DHT22;17711;54.018;9.300;2023-06-26T00:42:36;20.20;99.90
31046;DHT22;17711;54.018;9.300;2023-06-26T00:45:06;20.10;99.90
31046;DHT22;17711;54.018;9.300;2023-06-26T00:47:35;20.10;99.90
31046;DHT22;17711;54.018;9.300;2023-06-26T00:50:06;20.10;99.90
31046;DHT22;17711;54.018;9.300;2023-06-26T00:52:35;20.10;99.90
31046;DHT22;17711;54.018;9.300;2023-06-26T00:55:04;20.10;99.90
31046;DHT22;17711;54.018;9.300;2023-06-26T00:57:32;20.00;99.90
31046;DHT22;17711;54.018;9.300;2023-06-26T01:00:02;20.00;99.90
31046;DHT22;17711;54.018;9.300;2023-06-26T01:02:31;19.90;99.90
31046;DHT22;17711;54.018;9.300;2023-06-26T01:05:01;19.90;99.90
31046;DHT22;17711;54.018;9.300;2023-06-26T01:07:35;19.80;99.90
31046;DHT22;17711;54.018;9.300;2023-06-26T01:10:05;19.80;99.90
31046;DHT22;17711;54.018;9.300;2023-06-26T01:12:34;19.80;99.90
31046;DHT22;17711;54.018;9.300;2023-06-26T01:15:06;19.90;99.90
31046;DHT22;17711;54.018;9.300;2023-06-26T01:17:37;19.80;99.90
31046;DHT22;17711;54.018;9.300;2023-06-26T01:20:06;19.80;99.90
31046;DHT22;17711;54.018;9.300;2023-06-26T01:22:43;19.90;99.90
31046;DHT22;17711;54.018;9.300;2023-06-26T01:25:20;19.80;99.90
31046;DHT22;17711;54.018;9.300;2023-06-26T01:27:53;19.80;99.90
31046;DHT22;17711;54.018;9.300;2023-06-26T01:30:22;19.70;99.90
31046;DHT22;17711;54.018;9.300;2023-06-26T01:32:52;19.70;99.90
31046;DHT22;17711;54.018;9.300;2023-06-26T01:35:21;19.60;99.90
31046;DHT22;17711;54.018;9.300;2023-06-26T01:37:50;19.50;99.90
31046;DHT22;17711;54.018;9.300;2023-06-26T01:40:19;19.50;99.90
31046;DHT22;17711;54.018;9.300;2023-06-26T01:42:47;19.50;99.90
31046;DHT22;17711;54.018;9.300;2023-06-26T01:45:24;19.40;99.90
31046;DHT22;17711;54.018;9.300;2023-06-26T01:47:52;19.40;99.90
31046;DHT22;17711;54.018;9.300;2023-06-26T01:50:26;19.30;99.90
31046;DHT22;17711;54.018;9.300;2023-06-26T01:53:02;19.20;99.90
31046;DHT22;17711;54.018;9.300;2023-06-26T01:55:36;19.20;99.90
31046;DHT22;17711;54.018;9.300;2023-06-26T01:58:07;19.20;99.90
31046;DHT22;17711;54.018;9.300;2023-06-26T02:00:37;19.20;99.90
31046;DHT22;17711;54.018;9.300;2023-06-26T02:03:08;19.20;99.90
31046;DHT22;17711;54.018;9.300;2023-06-26T02:05:37;19.20;99.90
31046;DHT22;17711;54.018;9.300;2023-06-26T02:08:08;19.20;99.90
31046;DHT22;17711;54.018;9.300;2023-06-26T02:10:37;19.20;99.90
31046;DHT22;17711;54.018;9.300;2023-06-26T02:13:06;19.20;99.90
31046;DHT22;17711;54.018;9.300;2023-06-26T02:15:34;19.20;99.90
31046;DHT22;17711;54.018;9.300;2023-06-26T02:18:05;19.20;99.90
31046;DHT22;17711;54.018;9.300;2023-06-26T02:20:33;19.20;99.90
31046;DHT22;17711;54.018;9.300;2023-06-26T02:23:02;19.20;99.90
31046;DHT22;17711;54.018;9.300;2023-06-26T02:25:31;19.30;99.90
31046;DHT22;17711;54.018;9.300;2023-06-26T02:27:59;19.20;99.90
31046;DHT22;17711;54.018;9.300;2023-06-26T02:30:28;19.20;99.90
31046;DHT22;17711;54.018;9.300;2023-06-26T02:32:57;19.20;99.90
31046;DHT22;17711;54.018;9.300;2023-06-26T02:35:27;19.20;99.90
31046;DHT22;17711;54.018;9.300;2023-06-26T02:37:55;19.10;99.90
31046;DHT22;17711;54.018;9.300;2023-06-26T02:40:24;19.10;99.90
31046;DHT22;17711;54.018;9.300;2023-06-26T02:42:53;19.10;99.90
31046;DHT22;17711;54.018;9.300;2023-06-26T02:45:22;19.10;99.90
31046;DHT22;17711;54.018;9.300;2023-06-26T02:47:50;19.10;99.90
31046;DHT22;17711;54.018;9.300;2023-06-26T02:50:19;19.10;99.90
31046;DHT22;17711;54.018;9.300;2023-06-26T02:52:49;19.20;99.90
31046;DHT22;17711;54.018;9.300;2023-06-26T02:55:19;19.20;99.90
31046;DHT22;17711;54.018;9.300;2023-06-26T02:57:49;19.10;99.90
31046;DHT22;17711;54.018;9.300;2023-06-26T03:00:18;19.10;99.90
31046;DHT22;17711;54.018;9.300;2023-06-26T03:02:49;19.10;99.90
31046;DHT22;17711;54.018;9.300;2023-06-26T03:05:18;19.10;99.90
31046;DHT22;17711;54.018;9.300;2023-06-26T03:07:47;19.10;99.90
31046;DHT22;17711;54.018;9.300;2023-06-26T03:10:17;19.10;99.90
31046;DHT22;17711;54.018;9.300;2023-06-26T03:12:45;19.10;99.90
31046;DHT22;17711;54.018;9.300;2023-06-26T03:15:14;19.10;99.90
31046;DHT22;17711;54.018;9.300;2023-06-26T03:17:43;19.10;99.90
31046;DHT22;17711;54.018;9.300;2023-06-26T03:20:11;19.20;99.90
31046;DHT22;17711;54.018;9.300;2023-06-26T03:22:40;19.10;99.90
31046;DHT22;17711;54.018;9.300;2023-06-26T03:25:08;19.10;99.90
31046;DHT22;17711;54.018;9.300;2023-06-26T03:27:38;19.10;99.90
31046;DHT22;17711;54.018;9.300;2023-06-26T03:30:08;19.10;99.90
31046;DHT22;17711;54.018;9.300;2023-06-26T03:32:36;19.20;99.90
31046;DHT22;17711;54.018;9.300;2023-06-26T03:35:06;19.20;99.90
31046;DHT22;17711;54.018;9.300;2023-06-26T03:37:34;19.10;99.90
31046;DHT22;17711;54.018;9.300;2023-06-26T03:40:03;19.10;99.90
31046;DHT22;17711;54.018;9.300;2023-06-26T03:42:32;19.10;99.90
31046;DHT22;17711;54.018;9.300;2023-06-26T03:45:02;19.10;99.90
31046;DHT22;17711;54.018;9.300;2023-06-26T03:47:31;19.00;99.90
31046;DHT22;17711;54.018;9.300;2023-06-26T03:50:00;19.00;99.90
31046;DHT22;17711;54.018;9.300;2023-06-26T03:52:29;19.00;99.90
31046;DHT22;17711;54.018;9.300;2023-06-26T03:54:58;19.00;99.90
31046;DHT22;17711;54.018;9.300;2023-06-26T03:57:27;19.10;99.90
31046;DHT22;17711;54.018;9.300;2023-06-26T03:59:55;19.20;99.90
31046;DHT22;17711;54.018;9.300;2023-06-26T04:02:25;19.20;99.90
31046;DHT22;17711;54.018;9.300;2023-06-26T04:04:54;19.20;99.90
31046;DHT22;17711;54.018;9.300;2023-06-26T04:07:23;19.30;99.90
31046;DHT22;17711;54.018;9.300;2023-06-26T04:09:52;19.30;99.90
31046;DHT22;17711;54.018;9.300;2023-06-26T04:12:20;19.30;99.90
31046;DHT22;17711;54.018;9.300;2023-06-26T04:14:49;19.40;99.90
31046;DHT22;17711;54.018;9.300;2023-06-26T04:17:18;19.40;99.90
31046;DHT22;17711;54.018;9.300;2023-06-26T04:19:48;19.40;99.90
31046;DHT22;17711;54.018;9.300;2023-06-26T04:22:16;19.50;99.90
31046;DHT22;17711;54.018;9.300;2023-06-26T04:24:45;19.60;99.90
31046;DHT22;17711;54.018;9.300;2023-06-26T04:27:14;19.60;99.90
31046;DHT22;17711;54.018;9.300;2023-06-26T04:29:43;19.60;99.90
31046;DHT22;17711;54.018;9.300;2023-06-26T04:32:12;19.70;99.90
31046;DHT22;17711;54.018;9.300;2023-06-26T04:34:41;19.80;99.90
31046;DHT22;17711;54.018;9.300;2023-06-26T04:37:12;19.80;99.90
31046;DHT22;17711;54.018;9.300;2023-06-26T04:39:44;19.90;99.90
31046;DHT22;17711;54.018;9.300;2023-06-26T04:42:13;19.90;99.90
31046;DHT22;17711;54.018;9.300;2023-06-26T04:44:41;20.00;99.90
31046;DHT22;17711;54.018;9.300;2023-06-26T04:47:10;20.10;99.90
31046;DHT22;17711;54.018;9.300;2023-06-26T04:49:38;20.10;99.90
31046;DHT22;17711;54.018;9.300;2023-06-26T04:52:14;20.20;99.90
31046;DHT22;17711;54.018;9.300;2023-06-26T04:54:43;20.20;99.90
31046;DHT22;17711;54.018;9.300;2023-06-26T04:57:12;20.30;99.90
31046;DHT22;17711;54.018;9.300;2023-06-26T04:59:42;20.40;99.90
31046;DHT22;17711;54.018;9.300;2023-06-26T05:02:10;20.50;99.90
31046;DHT22;17711;54.018;9.300;2023-06-26T05:04:42;20.50;99.90
31046;DHT22;17711;54.018;9.300;2023-06-26T05:07:10;20.60;99.90
31046;DHT22;17711;54.018;9.300;2023-06-26T05:09:41;20.70;99.90
31046;DHT22;17711;54.018;9.300;2023-06-26T05:12:09;20.70;99.90
31046;DHT22;17711;54.018;9.300;2023-06-26T05:14:39;20.90;99.90
31046;DHT22;17711;54.018;9.300;2023-06-26T05:17:08;21.00;99.90
31046;DHT22;17711;54.018;9.300;2023-06-26T05:19:36;21.10;99.90
31046;DHT22;17711;54.018;9.300;2023-06-26T05:22:06;21.20;99.90
31046;DHT22;17711;54.018;9.300;2023-06-26T05:24:35;21.40;99.90
31046;DHT22;17711;54.018;9.300;2023-06-26T05:27:07;21.40;99.90
31046;DHT22;17711;54.018;9.300;2023-06-26T05:29:36;21.50;99.90
31046;DHT22;17711;54.018;9.300;2023-06-26T05:32:06;21.60;99.90
31046;DHT22;17711;54.018;9.300;2023-06-26T05:34:35;21.80;99.90
31046;DHT22;17711;54.018;9.300;2023-06-26T05:37:04;21.90;99.90
31046;DHT22;17711;54.018;9.300;2023-06-26T05:39:33;22.00;99.90
31046;DHT22;17711;54.018;9.300;2023-06-26T05:42:03;22.10;99.90
31046;DHT22;17711;54.018;9.300;2023-06-26T05:44:34;22.20;99.90
31046;DHT22;17711;54.018;9.300;2023-06-26T05:47:02;22.20;99.90
31046;DHT22;17711;54.018;9.300;2023-06-26T05:49:31;22.30;99.90
31046;DHT22;17711;54.018;9.300;2023-06-26T05:52:00;22.40;99.90
31046;DHT22;17711;54.018;9.300;2023-06-26T05:54:29;22.50;99.90
31046;DHT22;17711;54.018;9.300;2023-06-26T05:56:58;22.60;99.90
31046;DHT22;17711;54.018;9.300;2023-06-26T05:59:27;22.70;99.90
31046;DHT22;17711;54.018;9.300;2023-06-26T06:01:58;22.80;99.90
31046;DHT22;17711;54.018;9.300;2023-06-26T06:04:27;22.80;99.90
31046;DHT22;17711;54.018;9.300;2023-06-26T06:06:55;22.80;99.90
31046;DHT22;17711;54.018;9.300;2023-06-26T06:09:24;22.80;99.90
31046;DHT22;17711;54.018;9.300;2023-06-26T06:11:53;22.90;99.90
31046;DHT22;17711;54.018;9.300;2023-06-26T06:14:21;23.00;99.90
31046;DHT22;17711;54.018;9.300;2023-06-26T06:16:50;23.10;99.90
31046;DHT22;17711;54.018;9.300;2023-06-26T06:19:20;23.20;99.90
31046;DHT22;17711;54.018;9.300;2023-06-26T06:21:48;23.30;99.90
31046;DHT22;17711;54.018;9.300;2023-06-26T06:24:17;23.40;99.90
31046;DHT22;17711;54.018;9.300;2023-06-26T06:26:46;23.50;99.90
31046;DHT22;17711;54.018;9.300;2023-06-26T06:29:14;23.60;99.90
31046;DHT22;17711;54.018;9.300;2023-06-26T06:31:43;23.60;99.90
31046;DHT22;17711;54.018;9.300;2023-06-26T06:34:12;23.80;99.90
31046;DHT22;17711;54.018;9.300;2023-06-26T06:36:42;23.90;99.90
31046;DHT22;17711;54.018;9.300;2023-06-26T06:39:11;24.10;99.90
31046;DHT22;17711;54.018;9.300;2023-06-26T06:41:39;24.20;99.90
31046;DHT22;17711;54.018;9.300;2023-06-26T06:44:08;24.30;99.90
31046;DHT22;17711;54.018;9.300;2023-06-26T06:46:37;24.30;99.90
31046;DHT22;17711;54.018;9.300;2023-06-26T06:49:05;24.30;99.90
31046;DHT22;17711;54.018;9.300;2023-06-26T06:51:34;24.30;99.90
31046;DHT22;17711;54.018;9.300;2023-06-26T06:54:04;24.40;99.90
31046;DHT22;17711;54.018;9.300;2023-06-26T06:56:33;24.60;99.90
31046;DHT22;17711;54.018;9.300;2023-06-26T06:59:01;24.60;99.90
31046;DHT22;17711;54.018;9.300;2023-06-26T07:01:30;24.70;99.90
31046;DHT22;17711;54.018;9.300;2023-06-26T07:03:59;24.80;99.90
31046;DHT22;17711;54.018;9.300;2023-06-26T07:06:27;25.00;99.90
31046;DHT22;17711;54.018;9.300;2023-06-26T07:08:59;25.10;99.90
31046;DHT22;17711;54.018;9.300;2023-06-26T07:11:32;25.20;99.90
31046;DHT22;17711;54.018;9.300;2023-06-26T07:14:01;25.30;99.90
31046;DHT22;17711;54.018;9.300;2023-06-26T07:16:30;25.50;99.90
31046;DHT22;17711;54.018;9.300;2023-06-26T07:18:58;25.80;99.90
31046;DHT22;17711;54.018;9.300;2023-06-26T07:21:29;26.00;99.90
31046;DHT22;17711;54.018;9.300;2023-06-26T07:23:58;26.10;99.90
31046;DHT22;17711;54.018;9.300;2023-06-26T07:26:26;26.20;99.90
31046;DHT22;17711;54.018;9.300;2023-06-26T07:29:12;26.20;99.90
31046;DHT22;17711;54.018;9.300;2023-06-26T07:31:40;26.50;99.90
31046;DHT22;17711;54.018;9.300;2023-06-26T07:34:09;26.80;99.90
31046;DHT22;17711;54.018;9.300;2023-06-26T07:36:38;26.90;99.90
31046;DHT22;17711;54.018;9.300;2023-06-26T07:39:07;27.00;99.90
31046;DHT22;17711;54.018;9.300;2023-06-26T07:41:39;27.00;99.90
31046;DHT22;17711;54.018;9.300;2023-06-26T07:44:08;26.90;99.90
31046;DHT22;17711;54.018;9.300;2023-06-26T07:46:38;26.70;99.90
31046;DHT22;17711;54.018;9.300;2023-06-26T07:49:06;26.80;99.90
31046;DHT22;17711;54.018;9.300;2023-06-26T07:51:35;26.90;99.90
31046;DHT22;17711;54.018;9.300;2023-06-26T07:54:04;27.10;99.90
31046;DHT22;17711;54.018;9.300;2023-06-26T07:56:52;27.40;99.90
31046;DHT22;17711;54.018;9.300;2023-06-26T07:59:21;27.70;99.90
31046;DHT22;17711;54.018;9.300;2023-06-26T08:01:53;27.60;99.90
31046;DHT22;17711;54.018;9.300;2023-06-26T08:04:23;27.40;99.90
31046;DHT22;17711;54.018;9.300;2023-06-26T08:07:13;27.20;99.90
31046;DHT22;17711;54.018;9.300;2023-06-26T08:09:42;27.50;99.90
31046;DHT22;17711;54.018;9.300;2023-06-26T08:12:13;27.90;99.90
31046;DHT22;17711;54.018;9.300;2023-06-26T08:14:48;28.20;99.90
31046;DHT22;17711;54.018;9.300;2023-06-26T08:17:18;28.70;99.90
31046;DHT22;17711;54.018;9.300;2023-06-26T08:19:46;29.00;99.90
31046;DHT22;17711;54.018;9.300;2023-06-26T08:22:15;29.10;99.90
31046;DHT22;17711;54.018;9.300;2023-06-26T08:24:44;28.80;99.90
31046;DHT22;17711;54.018;9.300;2023-06-26T08:27:14;28.40;99.90
31046;DHT22;17711;54.018;9.300;2023-06-26T08:29:42;28.20;99.90
31046;DHT22;17711;54.018;9.300;2023-06-26T08:32:11;28.20;99.90
31046;DHT22;17711;54.018;9.300;2023-06-26T08:34:41;27.90;99.90
31046;DHT22;17711;54.018;9.300;2023-06-26T08:37:09;27.40;99.90
31046;DHT22;17711;54.018;9.300;2023-06-26T08:39:38;27.00;99.90
31046;DHT22;17711;54.018;9.300;2023-06-26T08:42:07;26.70;99.90
31046;DHT22;17711;54.018;9.300;2023-06-26T08:44:35;27.00;99.90
31046;DHT22;17711;54.018;9.300;2023-06-26T08:47:15;27.50;99.90
31046;DHT22;17711;54.018;9.300;2023-06-26T08:49:53;27.20;99.90
31046;DHT22;17711;54.018;9.300;2023-06-26T08:52:30;26.90;99.90
31046;DHT22;17711;54.018;9.300;2023-06-26T08:54:59;26.70;99.90
31046;DHT22;17711;54.018;9.300;2023-06-26T08:57:30;26.30;99.90
31046;DHT22;17711;54.018;9.300;2023-06-26T09:00:00;26.00;99.90
31046;DHT22;17711;54.018;9.300;2023-06-26T09:02:29;25.70;99.90
31046;DHT22;17711;54.018;9.300;2023-06-26T09:04:59;25.40;99.90
31046;DHT22;17711;54.018;9.300;2023-06-26T09:07:28;25.30;99.90
31046;DHT22;17711;54.018;9.300;2023-06-26T09:09:57;25.20;99.90
31046;DHT22;17711;54.018;9.300;2023-06-26T09:12:27;24.90;99.90
31046;DHT22;17711;54.018;9.300;2023-06-26T09:14:56;24.70;99.90
31046;DHT22;17711;54.018;9.300;2023-06-26T09:17:29;24.50;99.90
31046;DHT22;17711;54.018;9.300;2023-06-26T09:20:00;24.50;99.90
31046;DHT22;17711;54.018;9.300;2023-06-26T09:22:28;24.40;99.90
31046;DHT22;17711;54.018;9.300;2023-06-26T09:24:57;24.30;99.90
31046;DHT22;17711;54.018;9.300;2023-06-26T09:27:26;24.20;99.90
31046;DHT22;17711;54.018;9.300;2023-06-26T09:29:55;24.00;99.90
31046;DHT22;17711;54.018;9.300;2023-06-26T09:32:25;23.60;99.90
31046;DHT22;17711;54.018;9.300;2023-06-26T09:34:55;23.30;99.90
31046;DHT22;17711;54.018;9.300;2023-06-26T09:37:26;23.00;99.90
31046;DHT22;17711;54.018;9.300;2023-06-26T09:39:54;22.70;99.90
31046;DHT22;17711;54.018;9.300;2023-06-26T09:42:23;22.40;99.90
31046;DHT22;17711;54.018;9.300;2023-06-26T09:44:52;22.20;99.90
31046;DHT22;17711;54.018;9.300;2023-06-26T09:47:22;22.10;99.90
31046;DHT22;17711;54.018;9.300;2023-06-26T09:49:51;22.10;99.90
31046;DHT22;17711;54.018;9.300;2023-06-26T09:52:28;21.90;99.90
31046;DHT22;17711;54.018;9.300;2023-06-26T09:55:09;22.00;99.90
31046;DHT22;17711;54.018;9.300;2023-06-26T09:57:38;22.10;99.90
31046;DHT22;17711;54.018;9.300;2023-06-26T10:00:08;22.20;99.90
31046;DHT22;17711;54.018;9.300;2023-06-26T10:02:39;22.30;99.90
31046;DHT22;17711;54.018;9.300;2023-06-26T10:05:08;22.50;99.90
31046;DHT22;17711;54.018;9.300;2023-06-26T10:07:42;22.50;99.90
31046;DHT22;17711;54.018;9.300;2023-06-26T10:10:16;22.80;99.90
31046;DHT22;17711;54.018;9.300;2023-06-26T10:12:48;22.90;99.90
31046;DHT22;17711;54.018;9.300;2023-06-26T10:15:18;22.90;99.90
31046;DHT22;17711;54.018;9.300;2023-06-26T10:17:48;23.00;99.90
31046;DHT22;17711;54.018;9.300;2023-06-26T10:20:18;23.30;99.90
31046;DHT22;17711;54.018;9.300;2023-06-26T10:22:51;23.80;99.90
31046;DHT22;17711;54.018;9.300;2023-06-26T10:25:21;24.20;99.90
31046;DHT22;17711;54.018;9.300;2023-06-26T10:27:55;24.40;99.90
31046;DHT22;17711;54.018;9.300;2023-06-26T10:30:28;24.50;99.90
31046;DHT22;17711;54.018;9.300;2023-06-26T10:32:58;25.70;99.90
31046;DHT22;17711;54.018;9.300;2023-06-26T10:35:30;26.30;99.90
31046;DHT22;17711;54.018;9.300;2023-06-26T10:38:03;27.10;99.90
31046;DHT22;17711;54.018;9.300;2023-06-26T10:40:41;27.80;99.90
31046;DHT22;17711;54.018;9.300;2023-06-26T10:43:11;27.90;99.90
31046;DHT22;17711;54.018;9.300;2023-06-26T10:45:44;27.70;99.90
31046;DHT22;17711;54.018;9.300;2023-06-26T10:48:15;27.00;99.90
31046;DHT22;17711;54.018;9.300;2023-06-26T10:50:47;27.50;99.90
31046;DHT22;17711;54.018;9.300;2023-06-26T10:53:23;28.50;99.90
31046;DHT22;17711;54.018;9.300;2023-06-26T10:56:00;29.10;99.90
31046;DHT22;17711;54.018;9.300;2023-06-26T10:58:41;29.10;99.90
31046;DHT22;17711;54.018;9.300;2023-06-26T11:01:18;28.80;99.90
31046;DHT22;17711;54.018;9.300;2023-06-26T11:03:59;29.20;99.90
31046;DHT22;17711;54.018;9.300;2023-06-26T11:06:30;29.50;99.90
31046;DHT22;17711;54.018;9.300;2023-06-26T11:09:07;30.50;99.90
31046;DHT22;17711;54.018;9.300;2023-06-26T11:11:55;30.50;93.10
31046;DHT22;17711;54.018;9.300;2023-06-26T11:14:26;30.40;97.10
31046;DHT22;17711;54.018;9.300;2023-06-26T11:16:56;30.60;99.90
31046;DHT22;17711;54.018;9.300;2023-06-26T11:19:26;31.50;97.00
31046;DHT22;17711;54.018;9.300;2023-06-26T11:22:03;31.50;75.20
31046;DHT22;17711;54.018;9.300;2023-06-26T11:24:34;30.30;99.00
31046;DHT22;17711;54.018;9.300;2023-06-26T11:27:04;30.20;96.00
31046;DHT22;17711;54.018;9.300;2023-06-26T11:29:33;30.40;98.30
31046;DHT22;17711;54.018;9.300;2023-06-26T11:32:05;30.40;99.90
31046;DHT22;17711;54.018;9.300;2023-06-26T11:34:34;30.40;99.90
31046;DHT22;17711;54.018;9.300;2023-06-26T11:37:05;30.00;99.90
31046;DHT22;17711;54.018;9.300;2023-06-26T11:39:36;29.70;99.90
31046;DHT22;17711;54.018;9.300;2023-06-26T11:42:05;30.70;96.20
31046;DHT22;17711;54.018;9.300;2023-06-26T11:44:40;31.00;80.60
31046;DHT22;17711;54.018;9.300;2023-06-26T11:47:13;31.60;74.90
31046;DHT22;17711;54.018;9.300;2023-06-26T11:49:43;30.90;65.00
31046;DHT22;17711;54.018;9.300;2023-06-26T11:52:12;30.10;77.10
31046;DHT22;17711;54.018;9.300;2023-06-26T11:54:43;30.10;79.70
31046;DHT22;17711;54.018;9.300;2023-06-26T11:57:14;30.20;77.80
31046;DHT22;17711;54.018;9.300;2023-06-26T11:59:44;30.80;70.30
31046;DHT22;17711;54.018;9.300;2023-06-26T12:02:14;31.00;64.60
31046;DHT22;17711;54.018;9.300;2023-06-26T12:04:44;30.70;83.70
31046;DHT22;17711;54.018;9.300;2023-06-26T12:07:15;30.40;82.70
31046;DHT22;17711;54.018;9.300;2023-06-26T12:09:46;30.70;77.80
31046;DHT22;17711;54.018;9.300;2023-06-26T12:12:17;31.40;63.20
31046;DHT22;17711;54.018;9.300;2023-06-26T12:14:46;31.00;58.00
31046;DHT22;17711;54.018;9.300;2023-06-26T12:17:15;30.00;80.60
31046;DHT22;17711;54.018;9.300;2023-06-26T12:19:45;30.40;70.30
31046;DHT22;17711;54.018;9.300;2023-06-26T12:22:16;29.30;69.40
31046;DHT22;17711;54.018;9.300;2023-06-26T12:24:48;29.20;90.30
31046;DHT22;17711;54.018;9.300;2023-06-26T12:27:18;29.60;85.00
31046;DHT22;17711;54.018;9.300;2023-06-26T12:29:51;29.40;92.90
31046;DHT22;17711;54.018;9.300;2023-06-26T12:32:23;29.50;85.80
31046;DHT22;17711;54.018;9.300;2023-06-26T12:34:52;30.30;69.90
31046;DHT22;17711;54.018;9.300;2023-06-26T12:37:21;30.50;60.00
31046;DHT22;17711;54.018;9.300;2023-06-26T12:39:53;30.20;63.90
31046;DHT22;17711;54.018;9.300;2023-06-26T12:42:23;29.70;65.10
31046;DHT22;17711;54.018;9.300;2023-06-26T12:44:52;29.60;70.20
31046;DHT22;17711;54.018;9.300;2023-06-26T12:47:24;29.80;66.50
31046;DHT22;17711;54.018;9.300;2023-06-26T12:49:54;29.40;71.50
31046;DHT22;17711;54.018;9.300;2023-06-26T12:52:23;29.10;65.70
31046;DHT22;17711;54.018;9.300;2023-06-26T12:54:54;29.20;61.90
31046;DHT22;17711;54.018;9.300;2023-06-26T12:57:23;29.50;64.10
31046;DHT22;17711;54.018;9.300;2023-06-26T12:59:52;29.80;63.80
31046;DHT22;17711;54.018;9.300;2023-06-26T13:02:21;30.20;74.50
31046;DHT22;17711;54.018;9.300;2023-06-26T13:04:50;31.10;59.00
31046;DHT22;17711;54.018;9.300;2023-06-26T13:07:18;31.40;50.80
31046;DHT22;17711;54.018;9.300;2023-06-26T13:09:47;31.80;59.80
31046;DHT22;17711;54.018;9.300;2023-06-26T13:12:17;32.40;54.50
31046;DHT22;17711;54.018;9.300;2023-06-26T13:14:46;32.30;46.70
31046;DHT22;17711;54.018;9.300;2023-06-26T13:17:15;31.90;50.20
31046;DHT22;17711;54.018;9.300;2023-06-26T13:19:44;31.50;49.40
31046;DHT22;17711;54.018;9.300;2023-06-26T13:22:12;31.10;54.30
31046;DHT22;17711;54.018;9.300;2023-06-26T13:24:41;31.00;54.60
31046;DHT22;17711;54.018;9.300;2023-06-26T13:27:10;31.50;53.90
31046;DHT22;17711;54.018;9.300;2023-06-26T13:29:40;30.90;49.90
31046;DHT22;17711;54.018;9.300;2023-06-26T13:32:09;30.10;53.20
31046;DHT22;17711;54.018;9.300;2023-06-26T13:34:37;30.70;57.00
31046;DHT22;17711;54.018;9.300;2023-06-26T13:37:06;31.00;50.60
31046;DHT22;17711;54.018;9.300;2023-06-26T13:39:34;30.70;57.20
31046;DHT22;17711;54.018;9.300;2023-06-26T13:42:04;30.70;54.40
31046;DHT22;17711;54.018;9.300;2023-06-26T13:44:33;30.20;57.20
31046;DHT22;17711;54.018;9.300;2023-06-26T13:47:24;29.40;58.60
31046;DHT22;17711;54.018;9.300;2023-06-26T13:49:57;29.00;66.70
31046;DHT22;17711;54.018;9.300;2023-06-26T13:52:26;28.80;74.80
31046;DHT22;17711;54.018;9.300;2023-06-26T13:54:54;28.70;80.20
31046;DHT22;17711;54.018;9.300;2023-06-26T13:57:23;28.10;76.50
31046;DHT22;17711;54.018;9.300;2023-06-26T13:59:52;27.80;90.30
31046;DHT22;17711;54.018;9.300;2023-06-26T14:02:20;27.90;77.00
31046;DHT22;17711;54.018;9.300;2023-06-26T14:04:51;27.70;75.40
31046;DHT22;17711;54.018;9.300;2023-06-26T14:07:19;27.30;93.30
31046;DHT22;17711;54.018;9.300;2023-06-26T14:09:48;27.00;96.70
31046;DHT22;17711;54.018;9.300;2023-06-26T14:12:17;26.60;92.70
31046;DHT22;17711;54.018;9.300;2023-06-26T14:14:45;26.40;99.90
31046;DHT22;17711;54.018;9.300;2023-06-26T14:17:14;27.10;99.90
31046;DHT22;17711;54.018;9.300;2023-06-26T14:19:43;27.50;92.50
31046;DHT22;17711;54.018;9.300;2023-06-26T14:22:14;27.50;92.40
31046;DHT22;17711;54.018;9.300;2023-06-26T14:24:43;27.20;99.90
31046;DHT22;17711;54.018;9.300;2023-06-26T14:27:12;26.80;99.90
31046;DHT22;17711;54.018;9.300;2023-06-26T14:29:40;26.50;99.90
31046;DHT22;17711;54.018;9.300;2023-06-26T14:32:10;26.60;99.90
31046;DHT22;17711;54.018;9.300;2023-06-26T14:34:40;26.70;99.90
31046;DHT22;17711;54.018;9.300;2023-06-26T14:37:08;26.80;99.90
31046;DHT22;17711;54.018;9.300;2023-06-26T14:39:38;26.40;99.90
31046;DHT22;17711;54.018;9.300;2023-06-26T14:42:07;26.20;99.90
31046;DHT22;17711;54.018;9.300;2023-06-26T14:44:37;26.00;99.90
31046;DHT22;17711;54.018;9.300;2023-06-26T14:47:06;25.60;99.90
31046;DHT22;17711;54.018;9.300;2023-06-26T14:49:34;25.30;99.90
31046;DHT22;17711;54.018;9.300;2023-06-26T14:52:04;25.30;99.90
31046;DHT22;17711;54.018;9.300;2023-06-26T14:54:33;25.30;99.90
31046;DHT22;17711;54.018;9.300;2023-06-26T14:57:05;24.90;99.90
31046;DHT22;17711;54.018;9.300;2023-06-26T14:59:34;24.80;99.90
31046;DHT22;17711;54.018;9.300;2023-06-26T15:02:03;24.90;99.90
31046;DHT22;17711;54.018;9.300;2023-06-26T15:04:32;24.80;99.90
31046;DHT22;17711;54.018;9.300;2023-06-26T15:07:01;24.60;99.90
31046;DHT22;17711;54.018;9.300;2023-06-26T15:09:29;24.60;99.90
31046;DHT22;17711;54.018;9.300;2023-06-26T15:11:59;24.70;99.90
31046;DHT22;17711;54.018;9.300;2023-06-26T15:14:29;25.00;99.90
31046;DHT22;17711;54.018;9.300;2023-06-26T15:16:57;25.10;99.90
31046;DHT22;17711;54.018;9.300;2023-06-26T15:19:26;25.10;99.90
31046;DHT22;17711;54.018;9.300;2023-06-26T15:21:55;25.10;99.90
31046;DHT22;17711;54.018;9.300;2023-06-26T15:24:23;25.30;99.90
31046;DHT22;17711;54.018;9.300;2023-06-26T15:26:52;25.40;99.90
31046;DHT22;17711;54.018;9.300;2023-06-26T15:29:20;25.30;99.90
31046;DHT22;17711;54.018;9.300;2023-06-26T15:31:51;25.00;99.90
31046;DHT22;17711;54.018;9.300;2023-06-26T15:34:20;24.70;99.90
31046;DHT22;17711;54.018;9.300;2023-06-26T15:36:49;24.20;99.90
31046;DHT22;17711;54.018;9.300;2023-06-26T15:39:17;24.20;99.90
31046;DHT22;17711;54.018;9.300;2023-06-26T15:41:46;24.20;99.90
31046;DHT22;17711;54.018;9.300;2023-06-26T15:44:15;24.00;99.90
31046;DHT22;17711;54.018;9.300;2023-06-26T15:46:43;23.80;99.90